Time;durP1;ratioP1;P1;durP2;ratioP2;P2;SDS_P1;SDS_P2;PMS_P1;PMS_P2;Temp;Humidity;BMP_temperature;BMP_pressure;BME280_temperature;BME280_humidity;BME280_pressure;Samples;Min_cycle;Max_cycle;Signal;HPM_P1;HPM_P2
2022/04/16 00:01:53;;;;;;;2.10;1.10;;;;;;;21.43;49.52;100783.03;4968264;28;20038;-49
2022/04/16 00:04:19;;;;;;;2.83;1.42;;;;;;;21.43;49.33;100781.19;4965347;28;20022;-48
2022/04/16 00:06:44;;;;;;;4.57;1.63;;;;;;;21.41;49.53;100777.94;4967374;28;20031;-47
2022/04/16 00:09:10;;;;;;;2.95;1.30;;;;;;;21.40;49.33;100775.50;4967043;28;20039;-53
2022/04/16 00:11:38;;;;;;;4.00;1.70;;;;;;;21.39;49.27;100772.03;4964806;28;20126;-49
2022/04/16 00:14:04;;;;;;;2.33;1.30;;;;;;;21.38;49.49;100775.72;4965121;28;20039;-49
2022/04/16 00:16:31;;;;;;;3.17;1.67;;;;;;;21.36;49.45;100761.84;4965156;28;20541;-52
2022/04/16 00:18:56;;;;;;;4.20;1.42;;;;;;;21.36;49.20;100774.28;4966514;28;20066;-47
2022/04/16 00:21:23;;;;;;;5.75;1.80;;;;;;;21.34;49.37;100777.16;4966834;28;20063;-49
2022/04/16 00:23:49;;;;;;;3.17;1.33;;;;;;;21.34;49.54;100768.38;4967402;28;20785;-51
2022/04/16 00:26:14;;;;;;;3.63;1.40;;;;;;;21.33;49.26;100758.78;4966762;28;20034;-47
2022/04/16 00:28:40;;;;;;;3.97;1.88;;;;;;;21.31;49.17;100759.00;4966513;28;20383;-48
2022/04/16 00:31:05;;;;;;;2.60;1.30;;;;;;;21.30;49.42;100754.72;4966443;28;20042;-48
2022/04/16 00:33:33;;;;;;;2.53;1.40;;;;;;;21.28;49.25;100753.31;4967562;28;20469;-49
2022/04/16 00:36:00;;;;;;;3.42;1.38;;;;;;;21.28;49.59;100748.00;4967322;28;20034;-51
2022/04/16 00:38:26;;;;;;;2.22;1.40;;;;;;;21.27;49.31;100755.13;4967180;28;20054;-48
2022/04/16 00:40:52;;;;;;;1.65;1.23;;;;;;;21.25;49.14;100738.66;4964478;28;20514;-48
2022/04/16 00:43:24;;;;;;;3.25;1.35;;;;;;;21.24;48.94;100757.41;4966228;28;20026;-48
2022/04/16 00:45:50;;;;;;;1.35;1.00;;;;;;;21.24;49.39;100752.13;4966380;28;20038;-47
2022/04/16 00:48:16;;;;;;;2.40;1.63;;;;;;;21.23;49.30;100751.31;4967438;28;20399;-48
2022/04/16 00:50:41;;;;;;;3.55;1.55;;;;;;;21.24;49.08;100736.22;4965988;28;20034;-47
2022/04/16 00:53:07;;;;;;;2.45;1.40;;;;;;;21.24;49.15;100758.22;4966920;28;20479;-47
2022/04/16 00:55:36;;;;;;;2.92;1.42;;;;;;;21.23;49.34;100748.66;4965083;28;20035;-50
2022/04/16 00:58:02;;;;;;;3.17;1.27;;;;;;;21.23;48.93;100748.66;4962090;28;20462;-52
2022/04/16 01:00:28;;;;;;;2.65;1.48;;;;;;;21.23;49.33;100743.34;4965688;28;20062;-48
2022/04/16 01:02:55;;;;;;;2.30;1.20;;;;;;;21.24;49.16;100749.47;4959599;28;20537;-47
2022/04/16 01:05:21;;;;;;;2.60;1.02;;;;;;;21.23;48.92;100746.00;4965320;28;20129;-49
2022/04/16 01:07:57;;;;;;;2.05;1.08;;;;;;;21.23;48.90;100740.69;4966051;28;20030;-49
2022/04/16 01:10:26;;;;;;;2.10;1.40;;;;;;;21.24;48.91;100739.69;4963847;28;20031;-49
2022/04/16 01:12:52;;;;;;;1.65;1.45;;;;;;;21.23;49.05;100735.41;4963335;28;20047;-48
2022/04/16 01:15:20;;;;;;;3.17;1.00;;;;;;;21.23;48.80;100735.41;4966504;28;20098;-47
2022/04/16 01:17:47;;;;;;;5.20;1.55;;;;;;;21.24;49.02;100737.03;4966034;28;20471;-49
2022/04/16 01:20:13;;;;;;;3.95;1.23;;;;;;;21.23;49.10;100729.28;4963571;28;20039;-48
2022/04/16 01:22:40;;;;;;;2.30;1.20;;;;;;;21.24;48.91;100736.22;4965387;28;20463;-49
2022/04/16 01:25:07;;;;;;;3.15;1.40;;;;;;;21.23;48.66;100730.09;4966966;28;20042;-48
2022/04/16 01:27:35;;;;;;;3.58;1.25;;;;;;;21.24;48.94;100728.28;4966949;28;20196;-50
2022/04/16 01:30:03;;;;;;;3.22;1.25;;;;;;;21.23;48.74;100724.81;4966906;28;20042;-49
2022/04/16 01:32:29;;;;;;;1.42;0.93;;;;;;;21.22;48.65;100723.19;4967977;28;20031;-49
2022/04/16 01:34:55;;;;;;;6.55;1.70;;;;;;;21.20;48.93;100725.19;4968251;28;20046;-49
2022/04/16 01:37:22;;;;;;;3.83;1.25;;;;;;;21.21;48.76;100724.19;4967536;28;20042;-49
2022/04/16 01:39:48;;;;;;;3.45;1.10;;;;;;;21.19;48.88;100728.84;4966470;28;20054;-48
2022/04/16 01:42:13;;;;;;;1.88;1.40;;;;;;;21.17;48.75;100721.13;4966561;28;20031;-47
2022/04/16 01:44:39;;;;;;;2.83;1.27;;;;;;;21.15;48.46;100717.84;4965598;28;20038;-50
2022/04/16 01:47:04;;;;;;;2.50;1.30;;;;;;;21.14;48.56;100710.94;4965452;28;20436;-46
2022/04/16 01:49:30;;;;;;;1.83;1.15;;;;;;;21.15;48.80;100717.03;4962655;28;20027;-47
2022/04/16 01:51:57;;;;;;;2.42;0.90;;;;;;;21.14;48.77;100707.47;4964934;28;20121;-47
2022/04/16 01:54:22;;;;;;;2.05;1.30;;;;;;;21.13;48.67;100711.94;4964623;28;20576;-50
2022/04/16 01:56:48;;;;;;;2.13;1.20;;;;;;;21.14;48.77;100705.63;4965488;28;20046;-53
2022/04/16 01:59:13;;;;;;;2.42;1.20;;;;;;;21.13;48.54;100703.19;4967174;28;20035;-52
2022/04/16 02:01:38;;;;;;;3.35;1.38;;;;;;;21.14;48.64;100702.16;4968236;28;20065;-47
2022/04/16 02:04:05;;;;;;;1.63;0.90;;;;;;;21.14;48.98;100696.88;4969386;28;20027;-47
2022/04/16 02:06:30;;;;;;;2.03;1.17;;;;;;;21.12;48.71;100701.56;4970195;28;20038;-52
2022/04/16 02:08:55;;;;;;;2.80;1.20;;;;;;;21.12;48.82;100697.06;4968978;28;20030;-49
2022/04/16 02:11:21;;;;;;;1.42;0.90;;;;;;;21.11;48.64;100699.94;5256198;23;20060;-49
2022/04/16 02:13:46;;;;;;;1.95;1.10;;;;;;;21.10;48.89;100685.88;4987880;28;20049;-49
2022/04/16 02:16:13;;;;;;;2.90;1.40;;;;;;;21.10;48.35;100687.72;4989635;28;20073;-50
2022/04/16 02:18:39;;;;;;;2.03;1.00;;;;;;;21.09;48.54;100688.72;4990053;28;20085;-50
2022/04/16 02:21:04;;;;;;;1.08;0.77;;;;;;;21.08;48.51;100692.41;4989213;28;20227;-47
2022/04/16 02:23:30;;;;;;;1.58;0.85;;;;;;;21.07;48.84;100690.78;4989211;28;20531;-49
2022/04/16 02:25:55;;;;;;;1.60;0.80;;;;;;;21.05;48.74;100684.88;4988757;28;20116;-52
2022/04/16 02:28:21;;;;;;;1.73;1.00;;;;;;;21.04;48.51;100667.34;4989297;28;20146;-46
2022/04/16 02:30:49;;;;;;;3.67;1.30;;;;;;;21.04;48.83;100677.94;4989277;28;20358;-48
2022/04/16 02:33:15;;;;;;;1.55;0.88;;;;;;;21.04;48.75;100683.25;4988888;28;20090;-49
2022/04/16 02:35:40;;;;;;;2.67;1.25;;;;;;;21.02;48.86;100686.09;4989171;28;20437;-46
2022/04/16 02:38:06;;;;;;;2.45;0.90;;;;;;;21.02;48.49;100683.44;4988740;28;20054;-47
2022/04/16 02:40:31;;;;;;;2.35;1.23;;;;;;;21.04;48.73;100691.19;4988620;28;20405;-50
2022/04/16 02:42:56;;;;;;;1.88;1.08;;;;;;;21.03;48.42;100697.50;4989656;28;20105;-51
2022/04/16 02:48:07;;;;;;;1.77;0.80;;;;;;;21.03;48.45;100693.03;4987092;28;20046;-49
2022/04/16 02:50:33;;;;;;;2.22;0.90;;;;;;;21.04;48.58;100696.47;4989517;28;20060;-50
2022/04/16 02:52:59;;;;;;;3.35;1.10;;;;;;;21.05;48.53;100687.50;4989197;28;20026;-51
2022/04/16 02:55:26;;;;;;;1.38;0.75;;;;;;;21.05;48.60;100685.69;4989417;28;20507;-50
2022/04/16 02:57:51;;;;;;;0.90;0.68;;;;;;;21.06;48.50;100697.09;4989791;28;20061;-49
2022/04/16 03:00:20;;;;;;;3.42;1.10;;;;;;;21.06;48.28;100692.59;4988589;28;20066;-52
2022/04/16 03:02:46;;;;;;;2.03;1.05;;;;;;;21.06;48.58;100689.16;4988640;28;20035;-47
2022/04/16 03:05:12;;;;;;;0.90;0.60;;;;;;;21.06;48.18;100681.19;4988077;28;20125;-48
2022/04/16 03:07:38;;;;;;;1.70;1.10;;;;;;;21.05;48.15;100701.56;4988239;28;20109;-47
2022/04/16 03:10:06;;;;;;;1.10;0.80;;;;;;;21.04;48.54;100689.34;4987797;28;20376;-48
2022/04/16 03:12:45;;;;;;;1.70;1.00;;;;;;;21.02;48.02;100685.28;4987885;28;20073;-47
2022/04/16 03:17:57;;;;;;;2.40;1.10;;;;;;;21.00;48.21;100693.44;4988820;28;20044;-51
2022/04/16 03:20:22;;;;;;;1.60;0.82;;;;;;;21.01;48.54;100688.94;4987864;28;20061;-47
2022/04/16 03:22:48;;;;;;;1.30;0.70;;;;;;;20.99;48.29;100691.00;4988300;28;20066;-49
2022/04/16 03:25:13;;;;;;;1.38;0.80;;;;;;;20.99;48.17;100688.34;4988029;28;20431;-49
2022/04/16 03:27:39;;;;;;;1.35;0.73;;;;;;;20.98;48.34;100694.66;4988191;28;20033;-48
2022/04/16 03:30:06;;;;;;;1.92;0.70;;;;;;;20.98;48.11;100697.31;4987974;28;20034;-49
2022/04/16 03:32:32;;;;;;;2.60;0.70;;;;;;;20.96;48.36;100692.22;4987409;28;20036;-48
2022/04/16 03:34:57;;;;;;;2.10;0.70;;;;;;;20.95;48.22;100695.88;4987825;28;20038;-48
2022/04/16 03:37:24;;;;;;;1.80;0.90;;;;;;;20.95;48.16;100701.19;4987712;28;20082;-49
2022/04/16 03:39:50;;;;;;;2.65;0.80;;;;;;;20.94;48.59;100691.59;4987766;28;20026;-48
2022/04/16 03:42:18;;;;;;;2.05;0.73;;;;;;;20.94;48.14;100699.56;4987956;28;20046;-47
2022/04/16 03:44:43;;;;;;;1.50;0.90;;;;;;;20.94;48.25;100706.69;4987809;28;20041;-50
2022/04/16 03:47:10;;;;;;;1.70;0.98;;;;;;;20.92;48.33;100704.25;4987761;28;20038;-52
2022/04/16 03:49:37;;;;;;;1.33;0.88;;;;;;;20.92;48.24;100714.03;4987386;28;20302;-51
2022/04/16 03:52:03;;;;;;;1.88;0.80;;;;;;;20.92;48.45;100711.38;4988058;28;20073;-46
2022/04/16 04:00:00;;;;;;;1.50;0.80;;;;;;;20.88;48.21;100727.66;4981314;28;20045;-47
2022/04/16 04:02:30;;;;;;;2.50;0.80;;;;;;;20.88;48.49;100721.56;4987168;28;20227;-49
2022/04/16 04:04:57;;;;;;;1.17;0.73;;;;;;;20.91;48.32;100717.69;4980349;28;20026;-51
2022/04/16 04:07:23;;;;;;;1.52;0.80;;;;;;;20.89;48.53;100723.19;4987250;28;20133;-49
2022/04/16 04:09:49;;;;;;;1.88;0.82;;;;;;;20.90;48.39;100729.31;4987078;28;20494;-50
2022/04/16 04:12:15;;;;;;;2.28;0.80;;;;;;;20.88;48.40;100714.44;4987127;28;20081;-48
2022/04/16 04:14:45;;;;;;;0.90;0.60;;;;;;;20.90;48.08;100727.47;4985380;28;20509;-48
2022/04/16 04:17:12;;;;;;;1.50;0.90;;;;;;;20.91;48.48;100730.94;4986951;28;20030;-47
2022/04/16 04:19:40;;;;;;;1.88;1.10;;;;;;;20.90;48.38;100732.75;4986823;28;20397;-52
2022/04/16 04:22:07;;;;;;;1.85;0.65;;;;;;;20.91;48.04;100741.53;4986625;28;20026;-48
2022/04/16 04:24:33;;;;;;;1.85;0.90;;;;;;;20.90;48.29;100740.72;4986455;28;20062;-48
2022/04/16 04:27:00;;;;;;;1.38;1.00;;;;;;;20.92;48.13;100743.16;4987317;28;20062;-50
2022/04/16 04:29:27;;;;;;;1.55;0.85;;;;;;;20.92;48.07;100753.75;4986934;28;20046;-51
2022/04/16 04:31:52;;;;;;;1.67;0.90;;;;;;;20.92;48.34;100745.81;4986466;28;20077;-49
2022/04/16 04:34:18;;;;;;;1.25;0.70;;;;;;;20.91;47.85;100737.03;4986994;28;20113;-52
2022/04/16 04:36:43;;;;;;;1.88;0.55;;;;;;;20.91;47.88;100744.16;4986311;28;20034;-49
2022/04/16 04:39:09;;;;;;;2.20;0.88;;;;;;;20.90;47.93;100748.66;4986766;28;20041;-49
2022/04/16 04:41:34;;;;;;;1.40;0.90;;;;;;;20.91;47.98;100746.81;4986232;28;20038;-49
2022/04/16 04:44:00;;;;;;;3.88;0.90;;;;;;;20.90;48.19;100761.09;4986326;28;20034;-50
2022/04/16 04:46:25;;;;;;;1.45;0.85;;;;;;;20.88;48.00;100754.16;4983907;28;20038;-49
2022/04/16 04:48:50;;;;;;;1.30;0.82;;;;;;;20.87;48.10;100757.00;4981385;28;20462;-51
2022/04/16 04:51:16;;;;;;;2.25;1.00;;;;;;;20.86;47.82;100750.91;4985977;28;20359;-50
2022/04/16 04:53:41;;;;;;;1.27;0.90;;;;;;;20.85;48.19;100765.16;4984905;28;20113;-48
2022/04/16 04:56:07;;;;;;;2.10;0.82;;;;;;;20.85;47.75;100770.44;4986506;28;20042;-51
2022/04/16 04:58:32;;;;;;;1.42;0.90;;;;;;;20.84;48.07;100766.16;4985192;28;20034;-49
2022/04/16 05:00:57;;;;;;;2.03;1.00;;;;;;;20.85;48.08;100772.28;4979258;28;20371;-49
2022/04/16 05:03:23;;;;;;;1.42;0.80;;;;;;;20.84;47.90;100771.47;4982274;28;20104;-49
2022/04/16 05:05:49;;;;;;;1.40;0.90;;;;;;;20.85;48.06;100774.94;4985737;28;20474;-47
2022/04/16 05:08:15;;;;;;;1.15;0.77;;;;;;;20.84;48.21;100790.00;4985157;28;20038;-52
2022/04/16 05:10:40;;;;;;;2.03;1.40;;;;;;;20.83;47.88;100791.03;4986404;28;20034;-51
2022/04/16 05:13:06;;;;;;;2.13;0.70;;;;;;;20.83;48.07;100788.38;4984976;28;20046;-48
2022/04/16 05:15:31;;;;;;;1.30;0.90;;;;;;;20.84;47.70;100789.19;4984734;28;20070;-49
2022/04/16 05:17:57;;;;;;;1.55;0.85;;;;;;;20.84;48.07;100794.50;4985294;28;20026;-48
2022/04/16 05:20:22;;;;;;;2.05;0.90;;;;;;;20.84;48.00;100805.91;4985622;28;20083;-47
2022/04/16 05:22:48;;;;;;;1.33;0.80;;;;;;;20.84;47.79;100799.78;4985501;28;20032;-47
2022/04/16 05:25:13;;;;;;;2.40;0.90;;;;;;;20.83;48.05;100792.84;4985540;28;20489;-50
2022/04/16 05:27:39;;;;;;;1.23;0.85;;;;;;;20.82;48.19;100807.94;4984521;28;20455;-48
2022/04/16 05:30:13;;;;;;;1.55;0.75;;;;;;;20.81;47.93;100801.00;4982756;28;20512;-51
2022/04/16 05:32:47;;;;;;;1.63;0.93;;;;;;;20.80;47.84;100809.97;4985331;28;20042;-48
2022/04/16 05:35:13;;;;;;;1.33;0.90;;;;;;;20.80;48.30;100803.84;4988895;28;20084;-48
2022/04/16 05:37:38;;;;;;;2.25;0.82;;;;;;;20.79;47.79;100824.25;4989099;28;20197;-49
2022/04/16 05:40:05;;;;;;;1.95;0.77;;;;;;;20.79;47.88;100811.00;4988535;28;20125;-50
2022/04/16 05:42:31;;;;;;;2.05;0.60;;;;;;;20.78;48.11;100819.97;4988908;28;20038;-47
2022/04/16 05:45:01;;;;;;;1.85;0.73;;;;;;;20.77;47.93;100815.69;4988831;28;20036;-51
2022/04/16 05:47:27;;;;;;;2.10;0.95;;;;;;;20.77;48.21;100823.63;4979927;28;20092;-47
2022/04/16 05:49:52;;;;;;;2.30;0.93;;;;;;;20.77;48.19;100826.28;4989014;28;20367;-51
2022/04/16 05:52:18;;;;;;;1.33;0.80;;;;;;;20.76;47.99;100829.94;4989301;28;20413;-48
2022/04/16 05:54:44;;;;;;;1.48;0.70;;;;;;;20.77;47.93;100826.28;4988351;28;20046;-49
2022/04/16 05:57:10;;;;;;;1.75;0.95;;;;;;;20.77;48.18;100806.94;4985775;28;20026;-51
2022/04/16 05:59:35;;;;;;;2.25;1.02;;;;;;;20.77;48.19;100815.69;4988543;28;20046;-46
2022/04/16 06:02:02;;;;;;;2.40;0.77;;;;;;;20.78;48.25;100816.50;4986277;28;20430;-48
2022/04/16 06:04:28;;;;;;;1.30;0.90;;;;;;;20.81;49.36;100816.06;4986958;28;20120;-48
2022/04/16 06:06:53;;;;;;;2.25;1.23;;;;;;;20.86;49.80;100819.75;4988242;28;20034;-47
2022/04/16 06:09:19;;;;;;;3.75;1.65;;;;;;;20.96;50.45;100819.34;4988116;28;20619;-47
2022/04/16 06:11:46;;;;;;;3.15;1.98;;;;;;;21.05;52.80;100814.66;4984574;28;20570;-52
2022/04/16 06:14:11;;;;;;;2.40;1.05;;;;;;;21.06;52.28;100818.94;4984954;28;20038;-47
2022/04/16 06:16:37;;;;;;;2.97;0.90;;;;;;;21.04;51.35;100815.69;4988585;28;20041;-49
2022/04/16 06:19:02;;;;;;;2.88;1.20;;;;;;;21.01;50.86;100816.09;4987633;28;20540;-50
2022/04/16 06:21:28;;;;;;;1.65;1.25;;;;;;;21.01;51.47;100814.25;4986114;28;20030;-49
2022/04/16 06:23:53;;;;;;;2.38;1.17;;;;;;;21.06;51.67;100805.69;4986937;28;20029;-49
2022/04/16 06:26:19;;;;;;;7.20;1.75;;;;;;;21.11;52.37;100816.50;4988496;28;20049;-57
2022/04/16 06:28:44;;;;;;;6.45;2.40;;;;;;;21.13;52.27;100798.56;4986384;28;20189;-49
2022/04/16 06:31:09;;;;;;;2.67;1.58;;;;;;;21.09;51.88;100803.47;4983895;28;20023;-53
2022/04/16 06:33:35;;;;;;;3.83;2.08;;;;;;;21.06;51.50;100814.47;4981177;28;20038;-53
2022/04/16 06:36:01;;;;;;;2.20;1.23;;;;;;;21.04;51.23;100802.44;4988898;28;20027;-46
2022/04/16 06:38:29;;;;;;;1.45;1.00;;;;;;;21.02;50.87;100812.41;4976924;28;20066;-47
2022/04/16 06:40:55;;;;;;;3.72;1.00;;;;;;;21.01;50.77;100802.84;4982487;28;20289;-47
2022/04/16 06:43:20;;;;;;;3.33;0.88;;;;;;;20.99;50.71;100804.88;4987958;28;20104;-46
2022/04/16 06:45:46;;;;;;;2.97;0.80;;;;;;;20.98;50.43;100811.19;4987191;28;20474;-48
2022/04/16 06:48:11;;;;;;;4.40;1.20;;;;;;;20.97;50.11;100806.91;4987828;28;20467;-52
2022/04/16 06:50:37;;;;;;;7.43;1.30;;;;;;;20.92;48.80;100812.00;4988296;28;20485;-46
2022/04/16 06:53:02;;;;;;;4.47;0.90;;;;;;;20.90;48.21;100833.41;4987134;28;20121;-45
2022/04/16 06:55:27;;;;;;;5.18;1.23;;;;;;;20.88;47.70;100806.31;4987986;28;20359;-47
2022/04/16 06:57:53;;;;;;;3.70;0.80;;;;;;;20.87;47.49;100810.78;4984262;28;20030;-47
2022/04/16 07:00:18;;;;;;;5.97;0.82;;;;;;;20.86;47.36;100800.41;4984159;28;20451;-49
2022/04/16 07:02:44;;;;;;;5.50;1.50;;;;;;;20.85;47.64;100810.16;4988180;28;20128;-45
2022/04/16 07:05:09;;;;;;;1.10;0.80;;;;;;;20.86;47.72;100805.69;4986247;28;20511;-47
2022/04/16 07:07:35;;;;;;;3.20;0.90;;;;;;;20.86;48.00;100801.22;4985757;28;20771;-47
2022/04/16 07:10:00;;;;;;;1.02;0.50;;;;;;;20.88;48.49;100787.75;4985376;28;20474;-47
2022/04/16 07:12:26;;;;;;;3.35;0.70;;;;;;;20.89;49.03;100805.28;4979900;28;20046;-56
2022/04/16 07:14:51;;;;;;;8.85;1.77;;;;;;;20.91;48.96;100799.78;4985122;28;20030;-47
2022/04/16 07:17:17;;;;;;;6.32;1.20;;;;;;;20.91;49.17;100799.78;4985069;28;20156;-49
2022/04/16 07:19:42;;;;;;;4.82;0.88;;;;;;;20.90;48.95;100803.44;4982513;28;20397;-44
2022/04/16 07:22:08;;;;;;;5.80;1.25;;;;;;;20.89;49.34;100792.03;4985516;28;20084;-45
2022/04/16 07:24:37;;;;;;;10.10;1.20;;;;;;;20.88;49.87;100801.81;4982764;28;20034;-47
2022/04/16 07:27:04;;;;;;;6.45;0.95;;;;;;;20.88;49.82;100814.25;4985137;28;20038;-42
2022/04/16 07:29:30;;;;;;;8.90;1.27;;;;;;;20.86;49.59;100808.34;4981940;28;20118;-42
2022/04/16 07:31:56;;;;;;;10.77;1.77;;;;;;;20.85;49.07;100810.16;4984215;28;20038;-45
2022/04/16 07:34:22;;;;;;;13.45;1.02;;;;;;;20.84;49.34;100808.53;4985019;28;20026;-49
2022/04/16 07:36:48;;;;;;;6.47;0.80;;;;;;;20.82;48.70;100817.69;4985785;28;20044;-45
2022/04/16 07:39:14;;;;;;;11.63;1.20;;;;;;;20.82;47.92;100813.22;4980758;28;20078;-48
2022/04/16 07:41:40;;;;;;;6.47;0.85;;;;;;;20.84;47.63;100807.72;4986785;28;20060;-46
2022/04/16 07:44:06;;;;;;;5.03;1.35;;;;;;;20.84;47.13;100816.50;4985374;28;20041;-46
2022/04/16 07:46:35;;;;;;;6.28;0.70;;;;;;;20.86;46.71;100818.94;4987037;28;20042;-45
2022/04/16 07:49:04;;;;;;;3.63;0.85;;;;;;;20.86;46.41;100814.44;4987653;28;20540;-46
2022/04/16 07:51:32;;;;;;;7.88;0.70;;;;;;;20.88;46.58;100806.31;4987114;28;20126;-47
2022/04/16 07:53:58;;;;;;;7.15;1.20;;;;;;;20.88;47.09;100817.72;4986396;28;20133;-48
2022/04/16 07:56:24;;;;;;;5.32;1.13;;;;;;;20.90;47.30;100828.09;4985770;28;20417;-48
2022/04/16 07:58:50;;;;;;;7.45;1.17;;;;;;;20.90;47.00;100806.09;4987248;28;20116;-49
2022/04/16 08:01:16;;;;;;;5.25;0.80;;;;;;;20.91;46.95;100823.63;4987655;28;20857;-48
2022/04/16 08:03:42;;;;;;;7.13;1.38;;;;;;;20.91;47.09;100810.38;4985355;28;20099;-50
2022/04/16 08:06:08;;;;;;;7.50;1.60;;;;;;;20.91;47.10;100820.97;4988151;28;20482;-47
2022/04/16 08:08:33;;;;;;;6.75;1.20;;;;;;;20.91;47.17;100823.63;4985444;28;20042;-49
2022/04/16 08:10:58;;;;;;;4.55;0.95;;;;;;;20.90;47.01;100819.34;4986748;28;20030;-48
2022/04/16 08:13:24;;;;;;;5.60;1.02;;;;;;;20.89;47.08;100810.59;4986539;28;20042;-53
2022/04/16 08:15:50;;;;;;;6.38;1.33;;;;;;;20.88;47.18;100840.72;4986837;28;20041;-46
2022/04/16 08:18:15;;;;;;;2.85;0.80;;;;;;;20.88;47.28;100808.94;4986070;28;20022;-50
2022/04/16 08:20:42;;;;;;;7.47;1.00;;;;;;;20.87;47.29;100825.84;4984710;28;20045;-49
2022/04/16 08:23:08;;;;;;;6.13;0.90;;;;;;;20.86;47.28;100835.63;4985143;28;20097;-50
2022/04/16 08:28:00;;;;;;;3.67;1.35;;;;;;;20.87;47.22;100817.91;4986966;28;20581;-46
2022/04/16 08:30:26;;;;;;;2.60;1.00;;;;;;;20.87;47.09;100805.50;4985146;28;20031;-46
2022/04/16 08:32:52;;;;;;;4.75;0.60;;;;;;;20.86;46.93;100818.94;4983918;28;20035;-48
2022/04/16 08:35:18;;;;;;;4.70;0.60;;;;;;;20.85;46.82;100817.31;4985245;28;20081;-48
2022/04/16 08:37:45;;;;;;;1.77;0.60;;;;;;;20.83;46.96;100836.03;4986772;28;20144;-48
2022/04/16 08:40:12;;;;;;;2.20;0.60;;;;;;;20.83;47.22;100806.91;4985459;28;20022;-48
2022/04/16 08:42:40;;;;;;;2.95;0.70;;;;;;;20.82;47.12;100821.16;4987612;28;20062;-48
2022/04/16 08:45:08;;;;;;;2.45;0.60;;;;;;;20.81;47.06;100822.19;4985717;28;20038;-50
2022/04/16 08:47:34;;;;;;;2.58;0.60;;;;;;;20.82;46.93;100828.31;4988330;28;20038;-49
2022/04/16 08:50:01;;;;;;;2.13;0.60;;;;;;;20.81;46.77;100816.88;4982891;28;20022;-50
2022/04/16 08:52:31;;;;;;;3.35;0.55;;;;;;;20.79;46.83;100813.66;4987037;28;20117;-48
2022/04/16 08:54:57;;;;;;;1.10;0.50;;;;;;;20.79;46.96;100813.66;4986533;28;20022;-52
2022/04/16 08:57:23;;;;;;;4.60;0.93;;;;;;;20.79;46.84;100829.56;4986558;28;20637;-50
2022/04/16 08:59:53;;;;;;;3.22;0.60;;;;;;;20.78;46.79;100819.97;4984680;28;20118;-51
2022/04/16 09:02:23;;;;;;;2.65;0.65;;;;;;;20.77;46.74;100822.81;4985450;28;20096;-50
2022/04/16 09:05:00;;;;;;;2.55;0.47;;;;;;;20.77;46.52;100826.28;4987541;28;20061;-50
2022/04/16 09:07:25;;;;;;;2.47;0.50;;;;;;;20.76;46.52;100821.19;4985971;28;20034;-50
2022/04/16 09:09:50;;;;;;;4.45;0.68;;;;;;;20.76;46.81;100811.41;4989849;28;20041;-52
2022/04/16 09:12:20;;;;;;;5.25;0.68;;;;;;;20.75;46.53;100823.03;4990120;28;20050;-52
2022/04/16 09:14:46;;;;;;;3.67;0.55;;;;;;;20.75;47.05;100811.63;4990866;28;20486;-49
2022/04/16 09:17:18;;;;;;;1.05;0.45;;;;;;;20.74;46.47;100810.81;4992186;28;20038;-53
2022/04/16 09:19:54;;;;;;;2.67;0.55;;;;;;;20.74;46.32;100799.41;4990475;28;20050;-53
2022/04/16 09:22:32;;;;;;;;;;;;;;;20.66;46.28;100811.00;4991073;28;20715;-50
2022/04/16 09:24:58;;;;;;;1.05;0.60;;;;;;;20.70;46.39;100809.56;4984471;28;20439;-50
2022/04/16 09:27:23;;;;;;;1.60;0.50;;;;;;;20.73;46.25;100801.22;4990715;28;20034;-54
2022/04/16 09:29:49;;;;;;;2.20;0.40;;;;;;;20.76;46.56;100803.47;4984449;28;20031;-51
2022/04/16 09:32:24;;;;;;;1.85;0.40;;;;;;;20.77;46.62;100805.09;4990250;28;20174;-50
2022/04/16 09:34:52;;;;;;;4.38;0.50;;;;;;;20.79;46.35;100808.38;4989790;28;20185;-50
2022/04/16 09:37:18;;;;;;;0.90;0.30;;;;;;;20.80;46.69;100814.44;4989347;28;20034;-53
2022/04/16 09:39:43;;;;;;;2.22;0.50;;;;;;;20.80;46.76;100804.66;4988955;28;20034;-50
2022/04/16 09:42:09;;;;;;;2.05;0.55;;;;;;;20.80;46.37;100802.03;4988477;28;20030;-54
2022/04/16 09:44:34;;;;;;;1.10;0.50;;;;;;;20.80;46.54;100801.19;4990120;28;20033;-49
2022/04/16 09:47:03;;;;;;;3.20;0.50;;;;;;;20.81;46.41;100805.47;4989384;28;20030;-47
2022/04/16 09:49:32;;;;;;;0.85;0.30;;;;;;;20.80;46.57;100802.03;4989696;28;20026;-49
2022/04/16 09:52:00;;;;;;;1.05;0.63;;;;;;;20.81;46.47;100802.84;4989246;28;20030;-50
2022/04/16 09:54:27;;;;;;;3.03;0.30;;;;;;;20.80;46.16;100809.97;4982788;28;20026;-47
2022/04/16 09:56:59;;;;;;;3.20;0.55;;;;;;;20.79;45.83;100811.00;4988259;28;20062;-45
2022/04/16 09:59:26;;;;;;;1.88;0.70;;;;;;;20.77;46.21;100805.09;4982868;28;20026;-46
2022/04/16 10:01:52;;;;;;;1.58;0.30;;;;;;;20.78;45.93;100814.69;4989167;28;20486;-48
2022/04/16 10:04:19;;;;;;;0.93;0.30;;;;;;;20.76;45.84;100803.47;4986244;28;20026;-48
2022/04/16 10:06:46;;;;;;;1.13;0.38;;;;;;;20.76;45.27;100792.88;4988904;28;20038;-47
2022/04/16 10:09:17;;;;;;;0.90;0.30;;;;;;;20.76;45.28;100802.66;4987947;28;20030;-51
2022/04/16 10:14:33;;;;;;;1.20;0.40;;;;;;;20.73;45.25;100780.03;4988321;28;20450;-48
2022/04/16 10:17:14;;;;;;;2.35;0.40;;;;;;;20.73;45.33;100790.63;4984350;28;20030;-48
2022/04/16 10:19:45;;;;;;;0.50;0.30;;;;;;;20.73;44.88;100795.94;4988688;28;20038;-47
2022/04/16 10:22:22;;;;;;;1.85;0.30;;;;;;;20.71;45.00;100787.38;4987396;28;20363;-46
2022/04/16 10:24:48;;;;;;;1.00;0.30;;;;;;;20.74;44.89;100781.69;4987497;28;20554;-49
2022/04/16 10:27:22;;;;;;;0.77;0.30;;;;;;;20.74;44.98;100789.63;4989616;28;20402;-51
2022/04/16 10:29:48;;;;;;;0.90;0.40;;;;;;;20.73;45.05;100790.63;4989480;28;20046;-51
2022/04/16 10:32:17;;;;;;;1.10;0.30;;;;;;;20.74;45.09;100783.50;4989926;28;20114;-47
2022/04/16 10:34:44;;;;;;;1.25;0.40;;;;;;;20.74;44.50;100771.09;4989536;28;20030;-48
2022/04/16 10:37:23;;;;;;;0.60;0.22;;;;;;;20.72;44.79;100774.94;4988729;28;20030;-48
2022/04/16 10:39:52;;;;;;;0.93;0.30;;;;;;;20.72;44.44;100775.78;4988856;28;20037;-47
2022/04/16 10:42:29;;;;;;;1.13;0.45;;;;;;;20.70;44.31;100785.75;4988846;28;20030;-46
2022/04/16 10:45:05;;;;;;;0.95;0.40;;;;;;;20.72;44.80;100769.66;4987823;28;20035;-46
2022/04/16 10:47:37;;;;;;;0.50;0.30;;;;;;;20.71;44.85;100770.69;4988243;28;20046;-50
2022/04/16 10:50:19;;;;;;;0.93;0.30;;;;;;;20.71;44.71;100762.72;4988256;28;20034;-50
2022/04/16 10:53:01;;;;;;;2.15;0.30;;;;;;;20.69;44.54;100770.88;4987062;28;20042;-49
2022/04/16 10:55:32;;;;;;;0.63;0.38;;;;;;;20.70;44.40;100767.22;4987180;28;20062;-47
2022/04/16 10:58:03;;;;;;;1.13;0.30;;;;;;;20.69;44.28;100770.06;4987685;28;20058;-46
2022/04/16 11:00:45;;;;;;;1.15;0.25;;;;;;;20.67;44.35;100759.69;4988637;28;20046;-46
2022/04/16 11:03:12;;;;;;;0.95;0.38;;;;;;;20.70;44.22;100761.09;4988260;28;20068;-52
2022/04/16 11:05:41;;;;;;;0.80;0.30;;;;;;;20.70;44.32;100751.31;4988058;28;20038;-52
2022/04/16 11:08:08;;;;;;;0.90;0.30;;;;;;;20.70;44.06;100759.28;4987719;28;20466;-49
2022/04/16 11:10:33;;;;;;;1.00;0.30;;;;;;;20.71;44.49;100747.66;4987142;28;20034;-50
2022/04/16 11:13:01;;;;;;;0.85;0.30;;;;;;;20.72;44.69;100744.00;4987585;28;20042;-49
2022/04/16 11:15:27;;;;;;;1.02;0.30;;;;;;;20.74;44.40;100749.91;4987842;28;20133;-49
2022/04/16 11:17:57;;;;;;;1.00;0.30;;;;;;;20.74;44.38;100747.25;4987669;28;20197;-50
2022/04/16 11:20:25;;;;;;;0.40;0.20;;;;;;;20.76;44.44;100747.06;4987423;28;20104;-48
2022/04/16 11:22:52;;;;;;;1.42;0.30;;;;;;;20.76;44.37;100742.56;4987962;28;20066;-49
2022/04/16 11:25:21;;;;;;;0.57;0.30;;;;;;;20.78;44.14;100737.06;4986860;28;20042;-45
2022/04/16 11:36:07;;;;;;;1.02;0.20;;;;;;;20.76;44.26;100726.69;4987143;28;20052;-47
2022/04/16 11:38:35;;;;;;;0.95;0.38;;;;;;;20.78;44.18;100721.19;4980781;28;20137;-47
2022/04/16 11:41:04;;;;;;;1.27;0.30;;;;;;;20.77;44.28;100712.44;4986378;28;20030;-47
2022/04/16 11:43:31;;;;;;;0.80;0.20;;;;;;;20.78;44.44;100722.00;4987464;28;20500;-53
2022/04/16 11:45:58;;;;;;;1.20;0.30;;;;;;;20.76;44.28;100715.28;4988110;28;20042;-47
2022/04/16 11:48:24;;;;;;;1.00;0.30;;;;;;;20.76;44.46;100720.56;4987849;28;20829;-49